createdAt,value
2018-05-18T00:00:46.216Z,1005.27
2018-05-18T00:01:50.380Z,1005.26
2018-05-18T00:02:55.750Z,1005.29
2018-05-18T00:04:15.666Z,1005.26
2018-05-18T00:05:19.922Z,1005.26
2018-05-18T00:06:25.288Z,1005.29
2018-05-18T00:07:30.558Z,1005.33
2018-05-18T00:08:35.824Z,1005.23
2018-05-18T00:09:40.091Z,1005.23
2018-05-18T00:10:44.265Z,1005.25
2018-05-18T00:11:49.535Z,1005.2
2018-05-18T00:12:54.806Z,1005.26
2018-05-18T00:14:00.067Z,1005.27
2018-05-18T00:15:04.326Z,1005.24
2018-05-18T00:16:11.701Z,1005.28
2018-05-18T00:17:17.061Z,1005.24
2018-05-18T00:18:25.419Z,1005.27
2018-05-18T00:19:29.686Z,1005.28
2018-05-18T00:20:33.961Z,1005.28
2018-05-18T00:21:39.222Z,1005.28
2018-05-18T00:22:44.486Z,1005.18
2018-05-18T00:23:49.851Z,1005.25
2018-05-18T00:24:54.019Z,1005.2
2018-05-18T00:25:58.390Z,1005.18
2018-05-18T00:27:03.859Z,1005.18
2018-05-18T00:28:08.195Z,1005.28
2018-05-18T00:29:12.532Z,1005.24
2018-05-18T00:30:17.874Z,1005.12
2018-05-18T00:31:23.225Z,1005.22
2018-05-18T00:32:27.567Z,1005.22
2018-05-18T00:33:31.908Z,1005.27
2018-05-18T00:34:37.264Z,1005.24
2018-05-18T00:35:41.540Z,1005.18
2018-05-18T00:36:45.915Z,1005.25
2018-05-18T00:37:51.179Z,1005.16
2018-05-18T00:38:56.541Z,1005.16
2018-05-18T00:40:00.809Z,1005.09
2018-05-18T00:41:05.065Z,1005.13
2018-05-18T00:42:10.428Z,1005.19
2018-05-18T00:43:15.809Z,1005.13
2018-05-18T00:44:20.073Z,1005.24
2018-05-18T00:45:24.422Z,1005.21
2018-05-18T00:46:29.771Z,1005.21
2018-05-18T00:47:35.108Z,1005.15
2018-05-18T00:48:39.450Z,1005.18
2018-05-18T00:49:43.911Z,1005.24
2018-05-18T00:50:49.383Z,1005.12
2018-05-18T00:51:53.845Z,1005.3
2018-05-18T00:52:59.184Z,1005.21
2018-05-18T00:54:04.545Z,1005.22
2018-05-18T00:55:08.805Z,1005.21
2018-05-18T00:56:13.178Z,1005.18
2018-05-18T00:57:18.535Z,1005.19
2018-05-18T00:58:22.899Z,1005.18
2018-05-18T00:59:27.180Z,1005.15
2018-05-18T01:00:32.541Z,1005.21
2018-05-18T01:01:37.915Z,1005.13
2018-05-18T01:02:42.270Z,1005.18
2018-05-18T01:03:47.624Z,1005.12
2018-05-18T01:04:54.985Z,1005.15
2018-05-18T01:05:59.166Z,1005.15
2018-05-18T01:07:03.435Z,1005.13
2018-05-18T01:08:07.703Z,1005.15
2018-05-18T01:09:13.160Z,1005.21
2018-05-18T01:10:17.426Z,1005.13
2018-05-18T01:11:21.774Z,1005.25
2018-05-18T01:12:27.234Z,1005.19
2018-05-18T01:13:32.596Z,1005.15
2018-05-18T01:14:37.161Z,1005.15
2018-05-18T01:15:42.511Z,1005.19
2018-05-18T01:16:47.874Z,1005.15
2018-05-18T01:17:52.261Z,1005.13
2018-05-18T01:18:57.599Z,1005.16
2018-05-18T01:20:03.066Z,1005.24
2018-05-18T01:21:07.408Z,1005.16
2018-05-18T01:22:12.775Z,1005.12
2018-05-18T01:23:18.129Z,1005.16
2018-05-18T01:24:22.484Z,1005.18
2018-05-18T01:25:26.848Z,1005.15
2018-05-18T01:26:32.220Z,1005.18
2018-05-18T01:27:36.483Z,1005.21
2018-05-18T01:28:43.744Z,1005.24
2018-05-18T01:29:48.004Z,1005.25
2018-05-18T01:30:53.377Z,1005.19
2018-05-18T01:31:58.843Z,1005.22
2018-05-18T01:33:03.184Z,1005.21
2018-05-18T01:34:08.520Z,1005.27
2018-05-18T01:35:13.916Z,1005.22
2018-05-18T01:35:43.469Z,1005.16
2018-05-18T01:36:48.831Z,1005.13
2018-05-18T01:37:53.191Z,1005.18
2018-05-18T01:38:57.456Z,1005.24
2018-05-18T01:40:02.725Z,1005.24
2018-05-18T01:41:08.000Z,1005.15
2018-05-18T01:42:12.365Z,1005.24
2018-05-18T01:43:16.730Z,1005.21
2018-05-18T01:44:21.995Z,1005.22
2018-05-18T01:45:27.253Z,1005.21
2018-05-18T01:46:31.615Z,1005.22
2018-05-18T01:47:35.772Z,1005.1
2018-05-18T01:48:39.926Z,1005.07
2018-05-18T01:49:45.180Z,1005.09
2018-05-18T01:50:50.544Z,1005.22
2018-05-18T01:51:54.806Z,1005.18
2018-05-18T01:52:59.164Z,1005.18
2018-05-18T01:54:04.560Z,1005.27
2018-05-18T01:55:09.927Z,1005.24
2018-05-18T01:56:14.198Z,1005.24
2018-05-18T01:57:18.468Z,1005.21
2018-05-18T01:58:23.731Z,1005.16
2018-05-18T01:59:28.999Z,1005.21
2018-05-18T02:00:33.356Z,1005.22
2018-05-18T02:01:37.623Z,1005.24
2018-05-18T02:02:42.879Z,1005.18
2018-05-18T02:03:48.139Z,1005.13
2018-05-18T02:04:53.395Z,1005.13
2018-05-18T02:05:57.664Z,1005.15
2018-05-18T02:07:02.024Z,1005.18
2018-05-18T02:08:07.292Z,1005.1
2018-05-18T02:09:12.555Z,1005.07
2018-05-18T02:10:16.914Z,1005.15
2018-05-18T02:11:21.182Z,1005.13
2018-05-18T02:12:26.545Z,1005.18
2018-05-18T02:13:31.906Z,1005.15
2018-05-18T02:14:36.171Z,1005.13
2018-05-18T02:15:40.436Z,1005.12
2018-05-18T02:16:45.699Z,1005.1
2018-05-18T02:17:50.966Z,1005.15
2018-05-18T02:18:56.334Z,1005.18
2018-05-18T02:20:00.597Z,1005.1
2018-05-18T02:21:05.964Z,1005.09
2018-05-18T02:22:11.232Z,1005.16
2018-05-18T02:23:16.491Z,1005.22
2018-05-18T02:24:20.646Z,1005.15
2018-05-18T02:25:24.915Z,1005.13
2018-05-18T02:26:30.185Z,1005.16
2018-05-18T02:27:35.467Z,1005.16
2018-05-18T02:28:40.733Z,1005.15
2018-05-18T02:29:45.202Z,1005.18
2018-05-18T02:30:50.467Z,1005.15
2018-05-18T02:31:55.729Z,1005.16
2018-05-18T02:33:00.984Z,1005.16
2018-05-18T02:34:05.350Z,1005.22
2018-05-18T02:35:09.618Z,1005.25
2018-05-18T02:36:17.891Z,1005.28
2018-05-18T02:37:23.165Z,1005.2
2018-05-18T02:38:28.431Z,1005.32
2018-05-18T02:39:32.693Z,1005.29
2018-05-18T02:40:36.961Z,1005.26
2018-05-18T02:41:42.233Z,1005.26
2018-05-18T02:42:47.596Z,1005.32
2018-05-18T02:43:51.856Z,1005.22
2018-05-18T02:44:56.113Z,1005.2
2018-05-18T02:46:01.396Z,1005.23
2018-05-18T02:47:06.755Z,1005.22
2018-05-18T02:48:13.012Z,1005.2
2018-05-18T02:49:17.269Z,1005.19
2018-05-18T02:50:21.634Z,1005.26
2018-05-18T02:51:27.009Z,1005.28
2018-05-18T02:52:31.445Z,1005.2
2018-05-18T02:53:36.697Z,1005.22
2018-05-18T02:54:41.959Z,1005.32
2018-05-18T02:55:47.226Z,1005.23
2018-05-18T02:56:52.494Z,1005.31
2018-05-18T02:57:56.752Z,1005.2
2018-05-18T02:59:01.012Z,1005.2
2018-05-18T03:00:06.349Z,1005.2
2018-05-18T03:01:11.726Z,1005.25
2018-05-18T03:02:16.061Z,1005.19
2018-05-18T03:03:23.569Z,1005.17
2018-05-18T03:04:29.004Z,1005.17
2018-05-18T03:05:33.444Z,1005.19
2018-05-18T03:06:38.827Z,1005.22
2018-05-18T03:07:44.218Z,1005.17
2018-05-18T03:08:48.633Z,1005.26
2018-05-18T03:09:53.842Z,1005.26
2018-05-18T03:10:59.016Z,1005.23
2018-05-18T03:12:04.377Z,1005.28
2018-05-18T03:13:08.635Z,1005.2
2018-05-18T03:14:12.894Z,1005.28
2018-05-18T03:15:20.354Z,1005.2
2018-05-18T03:16:25.699Z,1005.22
2018-05-18T03:17:30.034Z,1005.22
2018-05-18T03:18:34.393Z,1005.2
2018-05-18T03:19:39.729Z,1005.19
2018-05-18T03:20:45.200Z,1005.23
2018-05-18T03:21:49.543Z,1005.26
2018-05-18T03:22:55.005Z,1005.22
2018-05-18T03:23:59.360Z,1005.22
2018-05-18T03:25:03.815Z,1005.26
2018-05-18T03:26:09.288Z,1005.14
2018-05-18T03:27:13.647Z,1005.25
2018-05-18T03:28:17.906Z,1005.2
2018-05-18T03:29:23.068Z,1005.23
2018-05-18T03:30:28.432Z,1005.16
2018-05-18T03:31:32.703Z,1005.16
2018-05-18T03:32:36.993Z,1005.2
2018-05-18T03:33:42.355Z,1005.2
2018-05-18T03:34:47.714Z,1005.34
2018-05-18T03:35:51.987Z,1005.2
2018-05-18T03:37:00.251Z,1005.2
2018-05-18T03:38:04.514Z,1005.16
2018-05-18T03:39:09.873Z,1005.25
2018-05-18T03:40:15.340Z,1005.17
2018-05-18T03:41:19.805Z,1005.17
2018-05-18T03:42:25.135Z,1005.22
2018-05-18T03:43:30.471Z,1005.13
2018-05-18T03:44:34.827Z,1005.16
2018-05-18T03:45:40.186Z,1005.19
2018-05-18T03:46:45.531Z,1005.16
2018-05-18T03:47:50.100Z,1005.16
2018-05-18T03:48:55.558Z,1005.22
2018-05-18T03:50:00.821Z,1005.17
2018-05-18T03:51:05.086Z,1005.23
2018-05-18T03:52:09.355Z,1005.23
2018-05-18T03:53:14.618Z,1005.25
2018-05-18T03:54:19.877Z,1005.29
2018-05-18T03:55:24.139Z,1005.17
2018-05-18T03:56:28.411Z,1005.13
2018-05-18T03:57:35.769Z,1005.23
2018-05-18T03:58:41.030Z,1005.28
2018-05-18T03:59:46.288Z,1005.2
2018-05-18T04:00:50.656Z,1005.23
2018-05-18T04:01:54.919Z,1005.28
2018-05-18T04:03:00.181Z,1005.29
2018-05-18T04:04:05.442Z,1005.22
2018-05-18T04:05:09.705Z,1005.34
2018-05-18T04:06:14.072Z,1005.35
2018-05-18T04:07:19.229Z,1005.23
2018-05-18T04:08:24.584Z,1005.25
2018-05-18T04:09:29.825Z,1005.32
2018-05-18T04:10:34.185Z,1005.32
2018-05-18T04:11:38.550Z,1005.29
2018-05-18T04:12:43.816Z,1005.32
2018-05-18T04:13:49.077Z,1005.41
2018-05-18T04:14:53.241Z,1005.3
2018-05-18T04:15:57.514Z,1005.33
2018-05-18T04:17:01.777Z,1005.35
2018-05-18T04:18:07.150Z,1005.28
2018-05-18T04:19:12.416Z,1005.41
2018-05-18T04:20:16.671Z,1005.36
2018-05-18T04:21:21.142Z,1005.38
2018-05-18T04:22:26.400Z,1005.28
2018-05-18T04:23:31.686Z,1005.39
2018-05-18T04:24:35.940Z,1005.42
2018-05-18T04:25:40.300Z,1005.44
2018-05-18T04:26:45.574Z,1005.42
2018-05-18T04:27:50.837Z,1005.42
2018-05-18T04:28:55.199Z,1005.45
2018-05-18T04:29:59.463Z,1005.45
2018-05-18T04:31:04.737Z,1005.42
2018-05-18T04:32:10.000Z,1005.48
2018-05-18T04:33:14.364Z,1005.42
2018-05-18T04:34:18.728Z,1005.5
2018-05-18T04:35:23.986Z,1005.44
2018-05-18T04:36:29.360Z,1005.53
2018-05-18T04:37:37.633Z,1005.48
2018-05-18T04:38:41.902Z,1005.5
2018-05-18T04:39:47.159Z,1005.53
2018-05-18T04:40:52.524Z,1005.53
2018-05-18T04:41:57.893Z,1005.54
2018-05-18T04:43:02.233Z,1005.53
2018-05-18T04:44:07.571Z,1005.59
2018-05-18T04:45:12.914Z,1005.54
2018-05-18T04:46:17.194Z,1005.57
2018-05-18T04:47:21.654Z,1005.57
2018-05-18T04:48:26.145Z,1005.48
2018-05-18T04:49:30.485Z,1005.57
2018-05-18T04:50:37.949Z,1005.56
2018-05-18T04:51:43.321Z,1005.6
2018-05-18T04:52:47.679Z,1005.64
2018-05-18T04:53:52.017Z,1005.54
2018-05-18T04:54:57.347Z,1005.63
2018-05-18T04:56:02.694Z,1005.67
2018-05-18T04:57:07.034Z,1005.64
2018-05-18T04:58:12.374Z,1005.6
2018-05-18T04:59:17.742Z,1005.63
2018-05-18T05:00:22.084Z,1005.63
2018-05-18T05:01:26.437Z,1005.6
2018-05-18T05:02:31.817Z,1005.58
2018-05-18T05:03:36.075Z,1005.64
2018-05-18T05:04:40.334Z,1005.69
2018-05-18T05:05:44.708Z,1005.7
2018-05-18T05:06:50.067Z,1005.67
2018-05-18T05:07:54.427Z,1005.67
2018-05-18T05:08:58.685Z,1005.67
2018-05-18T05:10:03.952Z,1005.69
2018-05-18T05:11:09.218Z,1005.61
2018-05-18T05:12:14.576Z,1005.6
2018-05-18T05:13:18.937Z,1005.69
2018-05-18T05:14:24.296Z,1005.78
2018-05-18T05:15:29.558Z,1005.67
2018-05-18T05:16:33.825Z,1005.75
2018-05-18T05:17:38.189Z,1005.7
2018-05-18T05:18:43.459Z,1005.75
2018-05-18T05:19:48.733Z,1005.67
2018-05-18T05:20:54.098Z,1005.7
2018-05-18T05:21:58.459Z,1005.58
2018-05-18T05:23:03.922Z,1005.75
2018-05-18T05:24:09.286Z,1005.78
2018-05-18T05:25:13.625Z,1005.72
2018-05-18T05:26:18.996Z,1005.63
2018-05-18T05:27:24.453Z,1005.75
2018-05-18T05:28:28.915Z,1005.69
2018-05-18T05:29:34.250Z,1005.72
2018-05-18T05:30:39.614Z,1005.76
2018-05-18T05:31:43.884Z,1005.75
2018-05-18T05:32:48.148Z,1005.72
2018-05-18T05:33:53.302Z,1005.73
2018-05-18T05:34:58.564Z,1005.76
2018-05-18T05:36:03.830Z,1005.7
2018-05-18T05:37:08.094Z,1005.73
2018-05-18T05:38:16.260Z,1005.76
2018-05-18T05:39:20.627Z,1005.87
2018-05-18T05:40:25.995Z,1005.89
2018-05-18T05:41:31.161Z,1005.86
2018-05-18T05:42:35.424Z,1005.86
2018-05-18T05:43:39.681Z,1005.78
2018-05-18T05:44:43.941Z,1005.89
2018-05-18T05:45:49.242Z,1005.87
2018-05-18T05:46:54.624Z,1005.87
2018-05-18T05:47:58.867Z,1005.9
2018-05-18T05:49:03.131Z,1005.9
2018-05-18T05:50:08.488Z,1005.87
2018-05-18T05:51:13.748Z,1005.87
2018-05-18T05:52:18.115Z,1005.77
2018-05-18T05:53:22.381Z,1005.75
2018-05-18T05:54:27.746Z,1005.91
2018-05-18T05:55:33.008Z,1005.78
2018-05-18T05:56:37.373Z,1005.78
2018-05-18T05:57:41.728Z,1005.89
2018-05-18T05:58:47.084Z,1005.82
2018-05-18T05:59:51.428Z,1005.79
2018-05-18T06:00:55.795Z,1005.82
2018-05-18T06:02:01.153Z,1005.9
2018-05-18T06:03:06.486Z,1005.88
2018-05-18T06:04:10.849Z,1005.91
2018-05-18T06:05:16.333Z,1005.88
2018-05-18T06:06:21.702Z,1005.83
2018-05-18T06:07:26.040Z,1005.81
2018-05-18T06:08:31.377Z,1005.87
2018-05-18T06:09:36.847Z,1005.81
2018-05-18T06:10:41.187Z,1005.81
2018-05-18T06:11:48.565Z,1005.81
2018-05-18T06:12:53.825Z,1005.93
2018-05-18T06:13:59.193Z,1005.81
2018-05-18T06:15:03.378Z,1005.86
2018-05-18T06:16:07.758Z,1005.87
2018-05-18T06:17:13.030Z,1005.82
2018-05-18T06:18:18.490Z,1005.95
2018-05-18T06:19:22.958Z,1005.86
2018-05-18T06:20:28.305Z,1005.92
2018-05-18T06:21:33.682Z,1005.95
2018-05-18T06:22:38.145Z,1005.98
2018-05-18T06:23:43.493Z,1006.02
2018-05-18T06:24:48.861Z,1006.05
2018-05-18T06:25:53.224Z,1005.96
2018-05-18T06:26:58.540Z,1005.95
2018-05-18T06:28:03.815Z,1006
2018-05-18T06:29:09.148Z,1005.94
2018-05-18T06:30:13.484Z,1006.03
2018-05-18T06:31:18.750Z,1006.08
2018-05-18T06:32:24.115Z,1006
2018-05-18T06:33:28.583Z,1006.04
2018-05-18T06:34:33.003Z,1006.12
2018-05-18T06:35:38.354Z,1006.11
2018-05-18T06:36:42.633Z,1006.1
2018-05-18T06:37:46.973Z,1006.12
2018-05-18T06:38:54.448Z,1006.13
2018-05-18T06:39:59.720Z,1006.13
2018-05-18T06:41:04.193Z,1006.12
2018-05-18T06:42:09.528Z,1006.25
2018-05-18T06:43:14.868Z,1006.09
2018-05-18T06:44:19.336Z,1006.19
2018-05-18T06:45:24.694Z,1006.21
2018-05-18T06:46:30.043Z,1006.25
2018-05-18T06:47:34.388Z,1006.21
2018-05-18T06:48:38.750Z,1006.28
2018-05-18T06:49:43.311Z,1006.25
2018-05-18T06:50:47.785Z,1006.25
2018-05-18T06:51:53.251Z,1006.18
2018-05-18T06:52:57.514Z,1006.22
2018-05-18T06:54:01.853Z,1006.25
2018-05-18T06:55:07.186Z,1006.16
2018-05-18T06:56:12.529Z,1006.14
2018-05-18T06:57:16.867Z,1006.12
2018-05-18T06:58:21.497Z,1006.21
2018-05-18T06:59:26.834Z,1006.12
2018-05-18T07:00:31.294Z,1006.24
2018-05-18T07:01:50.654Z,1006.05
2018-05-18T07:02:56.308Z,1006.12
2018-05-18T07:04:00.666Z,1006.11
2018-05-18T07:05:05.005Z,1006.12
2018-05-18T07:06:10.350Z,1006.18
2018-05-18T07:07:15.745Z,1006.18
2018-05-18T07:08:20.097Z,1006.07
2018-05-18T07:09:25.560Z,1006.08
2018-05-18T07:10:30.991Z,1006.09
2018-05-18T07:11:35.347Z,1006.08
2018-05-18T07:12:40.693Z,1006.07
2018-05-18T07:13:46.024Z,1006.08
2018-05-18T07:14:50.388Z,1006.1
2018-05-18T07:15:54.752Z,1006.11
2018-05-18T07:17:00.222Z,1006.16
2018-05-18T07:18:04.505Z,1006.07
2018-05-18T07:19:08.972Z,1006.13
2018-05-18T07:20:14.231Z,1006.14
2018-05-18T07:21:18.708Z,1006.17
2018-05-18T07:22:23.200Z,1006.16
2018-05-18T07:23:28.565Z,1006.1
2018-05-18T07:24:32.824Z,1006.14
2018-05-18T07:25:37.192Z,1006.11
2018-05-18T07:26:42.564Z,1006.17
2018-05-18T07:27:46.921Z,1006.15
2018-05-18T07:28:51.288Z,1006.09
2018-05-18T07:29:56.554Z,1006.15
2018-05-18T07:31:01.828Z,1006.14
2018-05-18T07:32:06.285Z,1006.18
2018-05-18T07:33:10.548Z,1006.16
2018-05-18T07:34:15.912Z,1006.13
2018-05-18T07:35:21.300Z,1006.09
2018-05-18T07:36:25.669Z,1006.08
2018-05-18T07:37:31.033Z,1006.15
2018-05-18T07:38:36.290Z,1006.07
2018-05-18T07:39:40.560Z,1006.1
2018-05-18T07:40:47.835Z,1006.12
2018-05-18T07:41:55.101Z,1006.22
2018-05-18T07:43:00.365Z,1006.16
2018-05-18T07:44:06.626Z,1006.2
2018-05-18T07:45:10.991Z,1006.17
2018-05-18T07:46:15.271Z,1006.09
2018-05-18T07:47:20.537Z,1006.22
2018-05-18T07:48:25.895Z,1006.19
2018-05-18T07:49:30.257Z,1006.27
2018-05-18T07:50:34.521Z,1006.22
2018-05-18T07:51:39.794Z,1006.15
2018-05-18T07:52:45.051Z,1006.21
2018-05-18T07:53:49.430Z,1006.14
2018-05-18T07:54:53.688Z,1006.15
2018-05-18T07:55:59.156Z,1006.26
2018-05-18T07:57:04.621Z,1006.2
2018-05-18T07:58:09.090Z,1006.1
2018-05-18T07:59:15.424Z,1006.25
2018-05-18T08:00:20.753Z,1006.26
2018-05-18T08:01:25.226Z,1006.1
2018-05-18T08:02:33.598Z,1006.1
2018-05-18T08:03:38.940Z,1006.15
2018-05-18T08:04:43.301Z,1006.25
2018-05-18T08:05:47.574Z,1006.15
2018-05-18T08:06:52.947Z,1006.2
2018-05-18T08:07:58.211Z,1006.14
2018-05-18T08:09:02.467Z,1006.15
2018-05-18T08:10:06.832Z,1006.07
2018-05-18T08:11:12.103Z,1006.14
2018-05-18T08:12:17.467Z,1006.19
2018-05-18T08:13:21.725Z,1006.31
2018-05-18T08:14:26.078Z,1006.11
2018-05-18T08:15:31.437Z,1006.17
2018-05-18T08:16:35.809Z,1006.15
2018-05-18T08:17:40.091Z,1006.07
2018-05-18T08:18:45.379Z,1006.16
2018-05-18T08:19:50.738Z,1006.13
2018-05-18T08:20:55.207Z,1006.28
2018-05-18T08:21:59.667Z,1006.25
2018-05-18T08:23:04.155Z,1006.14
2018-05-18T08:24:08.514Z,1006.18
2018-05-18T08:25:13.854Z,1006.14
2018-05-18T08:26:19.539Z,1006.15
2018-05-18T08:27:24.452Z,1006.14
2018-05-18T08:28:28.718Z,1006.17
2018-05-18T08:29:34.092Z,1006.2
2018-05-18T08:30:39.257Z,1006.2
2018-05-18T08:31:44.606Z,1006.22
2018-05-18T08:32:49.076Z,1006.22
2018-05-18T08:33:54.444Z,1006.34
2018-05-18T08:34:59.010Z,1006.2
2018-05-18T08:36:03.356Z,1006.22
2018-05-18T08:37:08.692Z,1006.25
2018-05-18T08:38:14.062Z,1006.2
2018-05-18T08:39:18.529Z,1006.28
2018-05-18T08:40:23.918Z,1006.23
2018-05-18T08:41:28.088Z,1006.18
2018-05-18T08:42:32.348Z,1006.25
2018-05-18T08:43:36.709Z,1006.25
2018-05-18T08:44:41.965Z,1006.25
2018-05-18T08:45:47.233Z,1006.25
2018-05-18T08:46:51.597Z,1006.21
2018-05-18T08:47:55.867Z,1006.22
2018-05-18T08:49:01.206Z,1006.18
2018-05-18T08:50:06.566Z,1006.18
2018-05-18T08:51:10.916Z,1006.18
2018-05-18T08:52:15.252Z,1006.2
2018-05-18T08:53:20.618Z,1006.18
2018-05-18T08:54:24.958Z,1006.21
2018-05-18T08:55:29.419Z,1006.18
2018-05-18T08:56:34.792Z,1006.2
2018-05-18T08:57:39.159Z,1006.2
2018-05-18T08:58:43.629Z,1006.2
2018-05-18T08:59:49.090Z,1006.18
2018-05-18T09:00:53.565Z,1006.12
2018-05-18T09:01:58.159Z,1006.24
2018-05-18T09:03:06.435Z,1006.17
2018-05-18T09:04:10.704Z,1006.13
2018-05-18T09:05:17.971Z,1006.19
2018-05-18T09:06:23.242Z,1006.2
2018-05-18T09:07:28.512Z,1006.22
2018-05-18T09:08:32.870Z,1006.19
2018-05-18T09:09:37.137Z,1006.25
2018-05-18T09:10:42.503Z,1006.19
2018-05-18T09:11:47.767Z,1006.23
2018-05-18T09:12:52.033Z,1006.28
2018-05-18T09:13:56.292Z,1006.22
2018-05-18T09:15:00.654Z,1006.23
2018-05-18T09:16:05.923Z,1006.25
2018-05-18T09:17:11.181Z,1006.19
2018-05-18T09:18:15.542Z,1006.19
2018-05-18T09:19:22.808Z,1006.16
2018-05-18T09:20:28.077Z,1006.15
2018-05-18T09:21:33.344Z,1006.19
2018-05-18T09:22:37.706Z,1006.22
2018-05-18T09:23:41.971Z,1006.1
2018-05-18T09:24:47.337Z,1006.12
2018-05-18T09:25:52.507Z,1006.13
2018-05-18T09:26:57.764Z,1006.01
2018-05-18T09:28:02.028Z,1006.06
2018-05-18T09:29:06.287Z,1006.1
2018-05-18T09:30:11.650Z,1006.12
2018-05-18T09:31:16.812Z,1006.15
2018-05-18T09:32:22.073Z,1006.18
2018-05-18T09:33:26.336Z,1006.13
2018-05-18T09:34:30.594Z,1006.13
2018-05-18T09:35:35.851Z,1006.13
2018-05-18T09:36:41.119Z,1006.16
2018-05-18T09:37:46.479Z,1006.16
2018-05-18T09:38:50.741Z,1006.18
2018-05-18T09:39:55.184Z,1006.09
2018-05-18T09:41:00.364Z,1006.06
2018-05-18T09:42:05.623Z,1006.11
2018-05-18T09:43:09.986Z,1006.06
2018-05-18T09:44:14.353Z,1006.02
2018-05-18T09:45:19.614Z,1006.05
2018-05-18T09:46:24.955Z,1006.05
2018-05-18T09:47:29.422Z,1006.03
2018-05-18T09:48:34.881Z,1006.08
2018-05-18T09:49:39.219Z,1006.09
2018-05-18T09:50:43.678Z,1006.12
2018-05-18T09:51:49.026Z,1005.96
2018-05-18T09:52:53.395Z,1006.06
2018-05-18T09:53:57.805Z,1006.11
2018-05-18T09:55:03.490Z,1006.17
2018-05-18T09:56:08.423Z,1006.06
2018-05-18T09:57:12.682Z,1006.06
2018-05-18T09:58:17.042Z,1006.14
2018-05-18T09:59:25.204Z,1006.11
2018-05-18T10:00:30.563Z,1006.15
2018-05-18T10:00:50.092Z,1006.09
2018-05-18T10:01:55.357Z,1006.12
2018-05-18T10:02:59.625Z,1006.18
2018-05-18T10:04:03.789Z,1006.18
2018-05-18T10:05:08.150Z,1006.12
2018-05-18T10:06:13.321Z,1006.12
2018-05-18T10:07:18.684Z,1006.21
2018-05-18T10:08:23.053Z,1006.14
2018-05-18T10:09:27.423Z,1006.06
2018-05-18T10:10:32.787Z,1006.17
2018-05-18T10:11:37.063Z,1006.14
2018-05-18T10:12:41.522Z,1006.14
2018-05-18T10:13:46.853Z,1006.11
2018-05-18T10:14:52.192Z,1006.14
2018-05-18T10:15:56.665Z,1006.09
2018-05-18T10:17:02.125Z,1006.15
2018-05-18T10:18:06.464Z,1006.14
2018-05-18T10:19:10.929Z,1006.09
2018-05-18T10:20:16.293Z,1006.11
2018-05-18T10:21:20.671Z,1006.18
2018-05-18T10:22:24.938Z,1006.06
2018-05-18T10:23:30.194Z,1006.08
2018-05-18T10:24:35.451Z,1006.11
2018-05-18T10:25:40.817Z,1006.05
2018-05-18T10:26:45.081Z,1006.11
2018-05-18T10:27:50.411Z,1006.14
2018-05-18T10:28:54.976Z,1006.11
2018-05-18T10:29:59.436Z,1006.12
2018-05-18T10:31:04.808Z,1006.12
2018-05-18T10:32:10.145Z,1006.17
2018-05-18T10:33:14.504Z,1006.12
2018-05-18T10:34:19.871Z,1006.11
2018-05-18T10:35:25.233Z,1006.06
2018-05-18T10:36:29.711Z,1006.08
2018-05-18T10:37:34.976Z,1006.07
2018-05-18T10:38:40.234Z,1006.08
2018-05-18T10:39:45.630Z,1006.1
2018-05-18T10:40:49.901Z,1006.11
2018-05-18T10:41:55.192Z,1006.09
2018-05-18T10:43:00.560Z,1006.08
2018-05-18T10:44:04.936Z,1006.01
2018-05-18T10:45:09.212Z,1005.96
2018-05-18T10:46:14.579Z,1005.99
2018-05-18T10:47:19.839Z,1005.96
2018-05-18T10:48:24.199Z,1006.01
2018-05-18T10:49:28.634Z,1005.96
2018-05-18T10:50:33.787Z,1005.92
2018-05-18T10:51:39.051Z,1006.01
2018-05-18T10:52:43.308Z,1006.07
2018-05-18T10:53:47.578Z,1006.02
2018-05-18T10:54:52.851Z,1005.95
2018-05-18T10:55:58.118Z,1005.96
2018-05-18T10:57:03.409Z,1006.03
2018-05-18T10:58:07.697Z,1005.89
2018-05-18T10:59:11.961Z,1005.92
2018-05-18T11:00:17.425Z,1005.86
2018-05-18T11:01:27.001Z,1005.82
2018-05-18T11:02:31.349Z,1005.86
2018-05-18T11:03:36.688Z,1005.92
2018-05-18T11:04:41.151Z,1005.92
2018-05-18T11:05:45.612Z,1005.9
2018-05-18T11:06:51.038Z,1005.87
2018-05-18T11:07:55.384Z,1005.82
2018-05-18T11:08:59.747Z,1005.81
2018-05-18T11:10:05.113Z,1005.89
2018-05-18T11:11:09.385Z,1005.82
2018-05-18T11:12:13.649Z,1005.82
2018-05-18T11:13:18.917Z,1005.86
2018-05-18T11:14:24.183Z,1005.82
2018-05-18T11:15:29.551Z,1005.82
2018-05-18T11:16:33.825Z,1005.81
2018-05-18T11:17:38.094Z,1005.7
2018-05-18T11:18:43.353Z,1005.69
2018-05-18T11:19:48.718Z,1005.67
2018-05-18T11:20:52.884Z,1005.72
2018-05-18T11:21:57.223Z,1005.7
2018-05-18T11:23:02.558Z,1005.72
2018-05-18T11:24:07.903Z,1005.79
2018-05-18T11:25:12.373Z,1005.67
2018-05-18T11:26:17.685Z,1005.64
2018-05-18T11:27:22.963Z,1005.69
2018-05-18T11:28:28.425Z,1005.72
2018-05-18T11:29:32.762Z,1005.61
2018-05-18T11:30:38.127Z,1005.69
2018-05-18T11:31:43.495Z,1005.82
2018-05-18T11:32:47.861Z,1005.67
2018-05-18T11:33:53.220Z,1005.57
2018-05-18T11:34:58.597Z,1005.6
2018-05-18T11:36:02.873Z,1005.66
2018-05-18T11:37:07.239Z,1005.64
2018-05-18T11:38:12.580Z,1005.6
2018-05-18T11:39:17.926Z,1005.55
2018-05-18T11:40:22.268Z,1005.58
2018-05-18T11:41:27.743Z,1005.6
2018-05-18T11:42:33.079Z,1005.66
2018-05-18T11:43:37.541Z,1005.61
2018-05-18T11:44:43.000Z,1005.6
2018-05-18T11:45:48.348Z,1005.66
2018-05-18T11:46:52.692Z,1005.67
2018-05-18T11:47:58.064Z,1005.52
2018-05-18T11:49:03.426Z,1005.52
2018-05-18T11:50:07.689Z,1005.52
